Aviation Digital Data Service (ADDS)

Output produced by METARs form (0402 UTC 17 July 2018)
found at http://aviationweather.gov/adds/metars/
 
KCXO 170353Z AUTO 22006KT 10SM CLR 29/24 A3003 RMK AO2 SLP163 T02890239